Time;durP1;ratioP1;P1;durP2;ratioP2;P2;SDS_P1;SDS_P2;PMS_P1;PMS_P2;Temp;Humidity;BMP_temperature;BMP_pressure;BME280_temperature;BME280_humidity;BME280_pressure;Samples;Min_cycle;Max_cycle;Signal;HPM_P1;HPM_P2
2022/06/19 00:02:10;;;;;;;5.43;2.47;;;28.80;42.90;;;29.24;31.43;98148.63;4982928;28;114045;-83
2022/06/19 00:04:37;;;;;;;3.80;2.27;;;28.70;42.90;;;29.21;31.31;98138.94;4970313;28;112804;-83
2022/06/19 00:07:03;;;;;;;2.73;2.00;;;28.70;43.10;;;29.19;31.38;98135.75;4988640;28;124763;-83
2022/06/19 00:09:30;;;;;;;3.90;2.10;;;28.70;43.20;;;29.15;31.50;98132.25;4983815;28;123826;-83
2022/06/19 00:11:57;;;;;;;4.90;2.10;;;28.60;43.20;;;29.11;31.54;98128.69;4983478;28;115247;-83
2022/06/19 00:14:24;;;;;;;5.27;2.40;;;28.60;43.40;;;29.07;31.43;98122.34;4989026;28;115265;-83
2022/06/19 00:16:51;;;;;;;4.00;2.20;;;28.50;43.40;;;29.04;31.57;98124.03;4980779;28;124072;-83
2022/06/19 00:19:18;;;;;;;2.53;1.80;;;28.50;43.60;;;29.01;31.63;98130.59;4981194;28;124520;-83
2022/06/19 00:21:46;;;;;;;3.37;2.20;;;28.50;43.70;;;28.98;31.83;98114.44;4968836;28;114335;-83
2022/06/19 00:24:12;;;;;;;2.73;1.87;;;28.50;43.80;;;28.95;31.90;98114.56;4982629;28;116568;-83
2022/06/19 00:26:39;;;;;;;3.63;2.53;;;28.40;43.80;;;28.91;32.06;98114.66;4974102;28;123973;-83
2022/06/19 00:29:05;;;;;;;3.50;2.17;;;28.40;43.90;;;28.87;31.88;98102.59;4991115;27;123574;-83
2022/06/19 00:31:32;;;;;;;4.17;2.27;;;28.30;43.90;;;28.84;32.21;98107.13;4973019;28;114353;-83
2022/06/19 00:33:59;;;;;;;5.47;2.13;;;28.30;44.10;;;28.79;32.31;98101.22;4989620;28;114172;-83
2022/06/19 00:36:26;;;;;;;4.07;2.13;;;28.30;44.20;;;28.75;32.38;98107.03;4971554;28;124121;-83
2022/06/19 00:38:54;;;;;;;6.40;2.40;;;28.30;44.20;;;28.72;32.37;98095.75;4972695;28;123376;-83
2022/06/19 00:41:22;;;;;;;3.00;2.00;;;28.20;44.30;;;28.69;32.22;98102.34;4976004;28;114669;-83
2022/06/19 00:44:00;;;;;;;4.53;2.80;;;28.20;44.30;;;28.66;32.34;98103.25;4988094;28;113305;-83
2022/06/19 00:46:44;;;;;;;6.30;2.40;;;28.20;44.40;;;28.62;32.44;98097.69;4980355;28;124072;-84
2022/06/19 00:49:32;;;;;;;4.77;2.50;;;28.10;44.60;;;28.58;32.51;98097.75;4972735;28;124317;-84
2022/06/19 00:52:14;;;;;;;3.60;2.63;;;28.10;44.70;;;28.52;32.69;98091.03;4981376;28;114556;-84
2022/06/19 00:54:48;;;;;;;4.63;2.10;;;28.00;44.80;;;28.49;32.89;98089.13;4993005;28;113009;-84
2022/06/19 00:57:16;;;;;;;7.07;2.70;;;28.00;45.00;;;28.46;32.50;98075.03;4978646;28;123847;-84
2022/06/19 00:59:51;;;;;;;3.73;2.20;;;28.00;45.00;;;28.42;33.27;98077.91;4979623;28;123893;-84
2022/06/19 01:02:18;;;;;;;3.70;2.83;;;27.90;45.10;;;28.39;33.04;98065.41;4974421;28;115115;-84
2022/06/19 01:04:52;;;;;;;3.60;2.10;;;27.90;45.10;;;28.37;33.05;98072.78;4975567;28;115074;-84
2022/06/19 01:07:22;;;;;;;2.47;2.20;;;27.90;45.20;;;28.34;32.84;98070.84;4972339;28;123424;-84
2022/06/19 01:09:51;;;;;;;4.13;2.20;;;27.80;45.20;;;28.32;32.98;98062.00;4986125;28;123800;-85
2022/06/19 01:12:20;;;;;;;2.67;2.07;;;27.80;45.30;;;28.28;33.18;98066.97;4982835;28;114672;-84
2022/06/19 01:14:47;;;;;;;4.03;2.40;;;27.80;45.40;;;28.27;33.43;98071.06;4986491;28;113952;-84
2022/06/19 01:17:16;;;;;;;4.80;2.63;;;27.70;45.30;;;28.25;33.40;98070.72;4983232;28;123010;-85
2022/06/19 01:19:44;;;;;;;3.77;2.27;;;27.70;45.50;;;28.22;33.07;98068.78;4985314;28;123872;-84
2022/06/19 01:22:35;;;;;;;4.40;2.20;;;27.70;45.50;;;28.17;33.33;98062.38;4976919;28;114504;-84
2022/06/19 01:25:15;;;;;;;2.60;1.93;;;27.60;45.50;;;28.13;33.21;98060.88;4985649;28;114038;-84
2022/06/19 01:30:37;;;;;;;3.93;2.07;;;27.60;45.50;;;28.06;33.26;98053.38;4979881;28;124379;-84
2022/06/19 01:33:08;;;;;;;4.97;2.70;;;27.50;45.60;;;28.04;33.35;98057.91;4979150;28;113865;-84
2022/06/19 01:35:37;;;;;;;4.10;2.53;;;27.50;45.70;;;28.00;33.47;98049.50;4980224;28;114050;-84
2022/06/19 01:38:16;;;;;;;4.40;2.50;;;27.50;45.80;;;27.96;33.20;98043.13;4976274;28;124349;-85
2022/06/19 01:40:51;;;;;;;2.93;2.50;;;27.50;45.90;;;27.95;33.51;98038.69;4978299;28;123694;-84
2022/06/19 01:43:19;;;;;;;4.10;2.10;;;27.40;45.80;;;27.93;33.58;98032.66;4987507;28;113877;-84
2022/06/19 01:45:55;;;;;;;4.50;2.63;;;27.40;46.70;;;27.90;33.49;98039.25;4988339;28;113207;-84
2022/06/19 01:48:25;;;;;;;3.93;2.10;;;27.40;46.00;;;27.87;33.33;98037.31;4976320;28;122587;-84
2022/06/19 01:50:53;;;;;;;6.50;2.77;;;27.40;46.10;;;27.87;33.34;98025.94;4980141;28;123709;-84
2022/06/19 01:53:42;;;;;;;3.53;2.33;;;27.30;45.90;;;27.81;33.64;98020.03;4975222;28;115373;-84
2022/06/19 01:56:10;;;;;;;4.20;2.23;;;27.30;46.10;;;27.79;33.52;98018.84;4977217;28;114879;-84
2022/06/19 01:58:43;;;;;;;6.87;2.47;;;27.20;46.10;;;27.74;33.66;98023.81;4978752;28;125996;-83
2022/06/19 02:01:11;;;;;;;3.00;2.20;;;27.20;46.10;;;27.71;33.67;98018.25;4978222;28;123960;-83
2022/06/19 02:03:50;;;;;;;3.87;2.47;;;27.20;46.20;;;27.69;33.96;98013.00;4983558;28;114238;-83
2022/06/19 02:06:21;;;;;;;3.97;2.60;;;27.20;46.20;;;27.66;33.91;98016.72;4973297;28;113920;-83
2022/06/19 02:08:48;;;;;;;3.77;2.40;;;27.20;46.30;;;27.65;33.74;98020.03;4976619;28;124333;-83
2022/06/19 02:11:16;;;;;;;6.13;2.50;;;27.10;46.40;;;27.63;34.12;98022.50;4977422;28;124027;-83
2022/06/19 02:13:44;;;;;;;6.13;2.10;;;27.10;46.40;;;27.60;33.59;98027.03;4988317;28;113893;-85
2022/06/19 02:16:16;;;;;;;3.50;2.50;;;27.10;46.50;;;27.58;34.20;98023.84;4965809;28;112894;-83
2022/06/19 02:18:48;;;;;;;4.97;2.30;;;27.00;46.50;;;27.56;34.03;98026.31;4982298;28;123717;-82
2022/06/19 02:21:52;;;;;;;4.87;2.27;;;27.00;46.60;;;27.49;33.83;98023.69;4981619;28;124325;-83
2022/06/19 02:24:24;;;;;;;3.90;2.20;;;27.00;46.60;;;27.47;33.94;98023.34;4983187;28;114272;-83
2022/06/19 02:26:51;;;;;;;4.13;2.30;;;26.90;46.60;;;27.45;33.81;98028.66;4978119;28;113989;-82
2022/06/19 02:29:19;;;;;;;3.10;2.00;;;26.90;46.60;;;27.42;33.92;98026.72;4979329;28;124126;-83
2022/06/19 02:31:52;;;;;;;8.13;2.17;;;26.90;46.50;;;27.39;34.06;98027.59;4986910;28;124187;-83
2022/06/19 02:34:37;;;;;;;4.20;2.00;;;26.90;46.40;;;27.38;33.73;98023.97;4991492;28;114239;-83
2022/06/19 02:37:21;;;;;;;3.30;2.10;;;26.90;46.30;;;27.37;33.76;98030.88;4976071;28;114354;-83
2022/06/19 02:40:12;;;;;;;4.57;1.63;;;26.80;46.10;;;27.36;33.25;98029.28;4976495;28;122947;-83
2022/06/19 02:42:43;;;;;;;2.87;1.53;;;26.80;46.00;;;27.37;33.71;98021.56;4972427;28;124213;-83
2022/06/19 02:45:17;;;;;;;1.93;1.60;;;26.80;46.00;;;27.37;33.62;98019.53;4961000;28;113944;-82
2022/06/19 02:47:45;;;;;;;2.93;1.70;;;26.80;45.90;;;27.37;33.15;98015.91;4973063;28;112966;-83
2022/06/19 02:50:19;;;;;;;3.90;2.20;;;26.80;45.90;;;27.36;33.41;98014.31;4981860;28;124056;-83
2022/06/19 02:52:47;;;;;;;2.97;1.80;;;26.80;45.90;;;27.35;33.37;98026.88;4982671;28;123883;-83
2022/06/19 02:55:15;;;;;;;2.00;1.50;;;26.80;46.00;;;27.36;33.58;98022.81;4974695;28;115081;-83
2022/06/19 02:57:42;;;;;;;2.97;1.80;;;26.80;46.00;;;27.34;33.50;98023.25;4977750;28;114157;-83
2022/06/19 03:00:22;;;;;;;4.17;2.10;;;26.80;46.00;;;27.34;33.44;98022.47;4976789;28;124234;-85
2022/06/19 03:02:51;;;;;;;7.60;2.00;;;26.80;46.10;;;27.31;33.86;98019.28;4990264;28;124017;-84
2022/06/19 03:05:23;;;;;;;2.37;1.87;;;26.70;46.10;;;27.29;33.63;98021.75;4979859;28;114671;-83
2022/06/19 03:07:50;;;;;;;4.70;2.40;;;26.70;46.80;;;27.26;33.85;98019.81;4981529;28;114016;-83
2022/06/19 03:10:17;;;;;;;4.37;2.30;;;26.70;46.30;;;27.23;33.87;98006.50;4979261;28;124591;-83
2022/06/19 03:12:44;;;;;;;4.20;2.33;;;26.70;46.50;;;27.19;33.83;98008.66;4985811;28;125831;-83
2022/06/19 03:15:13;;;;;;;3.73;1.73;;;26.60;46.60;;;27.13;34.22;98016.06;4979348;28;114367;-83
2022/06/19 03:17:40;;;;;;;7.97;2.53;;;26.60;46.80;;;27.08;34.54;98006.06;4976394;28;113982;-83
2022/06/19 03:20:11;;;;;;;5.77;2.80;;;26.60;47.10;;;27.01;34.75;97999.78;4982108;28;124073;-83
2022/06/19 03:22:38;;;;;;;4.83;2.53;;;26.50;47.20;;;26.97;34.63;97993.38;4979361;28;124402;-83
2022/06/19 03:25:05;;;;;;;4.47;2.30;;;26.50;47.30;;;26.95;35.01;97999.50;4977816;28;114502;-84
2022/06/19 03:27:31;;;;;;;2.57;1.77;;;26.40;47.40;;;26.94;35.00;97994.25;4976570;28;114035;-83
2022/06/19 03:29:58;;;;;;;4.70;2.27;;;26.40;47.50;;;26.92;35.04;97997.56;4966857;28;124775;-84
2022/06/19 03:32:24;;;;;;;6.20;2.33;;;26.40;47.70;;;26.91;34.85;97998.78;4975499;28;124097;-83
2022/06/19 03:34:52;;;;;;;3.13;2.10;;;26.40;47.70;;;26.88;35.11;98000.47;4979365;28;115811;-83
2022/06/19 03:37:19;;;;;;;5.07;2.13;;;26.30;47.70;;;26.88;34.94;97997.63;4981950;28;115680;-83
2022/06/19 03:39:45;;;;;;;5.60;2.37;;;26.30;47.80;;;26.86;34.94;98000.09;4969534;28;124327;-83
2022/06/19 03:42:14;;;;;;;5.20;2.30;;;26.30;47.90;;;26.84;35.30;98002.59;4969959;28;123666;-83
2022/06/19 03:44:41;;;;;;;3.43;2.13;;;26.30;48.00;;;26.84;35.36;97996.94;4960007;28;113351;-84
2022/06/19 03:47:08;;;;;;;6.80;2.57;;;26.30;48.00;;;26.83;35.01;97992.47;4973037;28;113808;-83
2022/06/19 03:49:35;;;;;;;4.80;2.20;;;26.30;48.10;;;26.82;35.50;97985.22;4979408;28;124098;-84
2022/06/19 03:52:01;;;;;;;3.80;2.33;;;26.20;48.10;;;26.82;35.29;97993.72;4969199;28;123805;-83
2022/06/19 03:54:28;;;;;;;6.43;2.40;;;26.20;48.30;;;26.82;35.12;97993.72;4977853;28;114218;-83
2022/06/19 03:56:54;;;;;;;3.17;2.20;;;26.20;48.40;;;26.80;35.69;97992.56;4976762;28;114202;-84
2022/06/19 03:59:21;;;;;;;4.40;2.33;;;26.20;48.40;;;26.78;35.65;97993.00;4975171;28;124532;-84
2022/06/19 04:01:47;;;;;;;5.70;2.13;;;26.20;48.50;;;26.77;35.39;97994.25;4993375;28;125041;-83
2022/06/19 04:04:14;;;;;;;4.53;2.00;;;26.20;48.60;;;26.78;35.55;97990.16;4983603;28;114127;-83
2022/06/19 04:06:42;;;;;;;5.17;2.50;;;26.20;48.80;;;26.80;35.69;97992.56;4976446;28;114008;-83
2022/06/19 04:09:14;;;;;;;3.07;2.17;;;26.20;48.90;;;26.80;36.09;97987.69;4980599;28;124017;-83
2022/06/19 04:11:42;;;;;;;6.23;2.13;;;26.20;49.00;;;26.81;36.11;97989.31;4977404;28;124284;-83
2022/06/19 04:14:10;;;;;;;5.67;2.20;;;26.20;49.10;;;26.81;35.81;97992.16;4973718;28;114743;-83
2022/06/19 04:16:37;;;;;;;5.40;2.53;;;26.20;49.20;;;26.82;35.82;97981.59;4985221;28;113956;-83
2022/06/19 04:19:06;;;;;;;5.57;2.10;;;26.20;49.30;;;26.82;36.23;97996.56;4984173;28;124142;-83
2022/06/19 04:21:39;;;;;;;3.70;2.10;;;26.20;49.40;;;26.83;35.87;97994.53;4978562;28;123712;-83
2022/06/19 04:24:06;;;;;;;4.47;2.20;;;26.20;49.40;;;26.84;35.96;97991.25;4981359;28;115071;-84
2022/06/19 04:26:36;;;;;;;4.10;2.03;;;26.20;49.50;;;26.83;36.38;97995.31;4971138;28;114985;-84
2022/06/19 04:29:04;;;;;;;3.93;2.60;;;26.20;49.60;;;26.83;36.42;97994.53;4981971;28;124127;-83
2022/06/19 04:31:31;;;;;;;4.50;2.07;;;26.20;49.60;;;26.82;36.53;97999.41;4978912;28;124061;-83
2022/06/19 04:33:58;;;;;;;5.17;2.40;;;26.20;49.70;;;26.84;36.01;97996.94;4982045;28;114126;-84
2022/06/19 04:36:28;;;;;;;5.83;2.60;;;26.20;49.70;;;26.84;36.24;97998.94;4984040;28;113942;-83
2022/06/19 04:38:56;;;;;;;3.53;2.57;;;26.20;49.80;;;26.83;36.36;98000.97;4981473;28;124049;-84
2022/06/19 04:41:31;;;;;;;3.00;2.10;;;26.20;49.90;;;26.86;36.31;98004.97;4968437;28;123785;-84
2022/06/19 04:43:59;;;;;;;3.80;2.13;;;26.30;50.10;;;26.86;36.80;98004.97;4981523;28;114439;-84
2022/06/19 04:46:26;;;;;;;2.90;1.97;;;26.30;50.20;;;26.88;36.75;98005.34;4977702;28;114344;-84
2022/06/19 04:48:53;;;;;;;2.80;2.20;;;26.30;50.30;;;26.90;36.75;98004.91;4970361;28;123846;-84
2022/06/19 04:51:20;;;;;;;4.40;2.40;;;26.30;50.40;;;26.94;36.87;97999.94;4969338;28;123749;-84
2022/06/19 04:53:46;;;;;;;4.57;2.33;;;26.30;50.40;;;26.96;36.71;98003.13;4975000;28;114760;-84
2022/06/19 04:56:16;;;;;;;3.83;2.20;;;26.30;50.50;;;26.97;36.51;97999.03;4983570;28;113969;-83
2022/06/19 04:58:42;;;;;;;3.47;2.33;;;26.30;50.60;;;27.00;36.83;97998.97;4961756;28;123524;-83
2022/06/19 05:01:26;;;;;;;4.20;2.30;;;26.40;50.70;;;27.01;36.57;98003.41;4982292;28;123601;-84
2022/06/19 05:03:57;;;;;;;3.37;2.30;;;26.40;50.80;;;27.04;37.21;97996.84;4972862;28;114272;-83
2022/06/19 05:06:24;;;;;;;5.83;2.50;;;26.40;50.80;;;27.07;37.08;98000.81;4974185;28;113280;-83
2022/06/19 05:08:51;;;;;;;4.03;2.27;;;26.50;50.90;;;27.09;37.27;97995.50;4975562;28;123940;-83
2022/06/19 05:11:19;;;;;;;2.50;2.13;;;26.40;50.90;;;27.10;36.69;98002.75;4977009;28;124903;-83
2022/06/19 05:13:46;;;;;;;5.07;2.53;;;26.50;51.00;;;27.13;37.10;98001.09;4969972;28;114517;-83
2022/06/19 05:16:16;;;;;;;6.57;2.53;;;26.50;51.10;;;27.15;37.30;98007.91;4977188;28;115826;-83
2022/06/19 05:18:44;;;;;;;4.80;2.20;;;26.50;51.00;;;27.19;36.81;98005.81;4980118;28;124050;-83
2022/06/19 05:21:12;;;;;;;8.23;2.57;;;26.50;50.90;;;27.22;36.45;98010.59;4979454;28;123846;-83
2022/06/19 05:23:44;;;;;;;8.37;2.00;;;26.50;50.60;;;27.23;36.58;98006.50;4977192;28;114320;-83
2022/06/19 05:26:22;;;;;;;3.17;2.20;;;26.60;50.40;;;27.27;36.07;98007.22;4976301;28;114036;-83
2022/06/19 05:28:50;;;;;;;4.00;2.37;;;26.60;50.30;;;27.31;35.98;98002.25;4970408;28;124198;-84
2022/06/19 05:31:17;;;;;;;4.90;2.10;;;26.60;50.10;;;27.37;35.92;98001.72;4982153;28;123885;-83
2022/06/19 05:33:44;;;;;;;3.90;2.23;;;26.70;50.00;;;27.42;35.56;98004.00;4985871;28;114216;-83
2022/06/19 05:36:12;;;;;;;4.77;1.80;;;26.70;49.80;;;27.46;35.63;97996.22;4976934;28;114117;-83
2022/06/19 05:38:39;;;;;;;3.50;2.27;;;26.80;49.60;;;27.48;35.64;98002.22;4975683;28;124641;-83
2022/06/19 05:41:05;;;;;;;5.00;2.17;;;26.80;49.40;;;27.55;35.18;97999.19;4977297;28;125069;-83
2022/06/19 05:43:34;;;;;;;6.73;2.47;;;26.90;49.40;;;27.59;35.45;97999.88;4985710;28;113621;-82
2022/06/19 05:46:06;;;;;;;5.63;2.30;;;26.90;49.20;;;27.63;35.25;97992.09;4980746;28;113931;-83
2022/06/19 05:48:34;;;;;;;5.10;2.63;;;26.90;49.00;;;27.69;35.21;98004.47;4990685;28;124308;-82
2022/06/19 05:51:14;;;;;;;5.83;2.30;;;27.00;49.00;;;27.73;34.68;97999.50;4979627;28;123056;-83
2022/06/19 05:53:45;;;;;;;4.30;2.20;;;27.10;48.90;;;27.81;34.70;98002.16;4980066;28;114197;-82
2022/06/19 05:56:12;;;;;;;4.83;2.37;;;27.10;48.80;;;27.89;34.76;98003.59;4980575;28;115093;-84
2022/06/19 05:58:41;;;;;;;3.77;2.20;;;27.20;48.80;;;27.95;34.29;98001.78;4996132;28;123970;-82
2022/06/19 06:01:09;;;;;;;5.33;2.13;;;27.30;48.60;;;28.01;34.54;98002.03;4977075;28;123607;-85
2022/06/19 06:03:36;;;;;;;6.70;2.80;;;27.30;48.40;;;28.06;34.57;97996.59;4974346;28;115217;-85
2022/06/19 06:06:10;;;;;;;3.17;1.97;;;27.40;48.30;;;28.13;34.52;97993.53;4988095;28;115289;-84
2022/06/19 06:08:38;;;;;;;4.90;2.33;;;27.40;48.20;;;28.22;34.13;97992.09;4972279;28;124551;-86
2022/06/19 06:11:06;;;;;;;4.93;2.20;;;27.50;48.20;;;28.30;34.09;98001.97;4984397;28;123423;-83
2022/06/19 06:13:33;;;;;;;5.90;2.10;;;27.60;48.20;;;28.36;34.16;97997.31;4974258;28;114457;-82
2022/06/19 06:16:00;;;;;;;5.87;2.50;;;27.70;48.10;;;28.44;34.09;98001.56;4976419;28;114954;-83
2022/06/19 06:18:27;;;;;;;5.03;2.00;;;27.70;48.00;;;28.51;34.09;97987.16;4975795;28;123207;-83
2022/06/19 06:21:06;;;;;;;8.40;2.70;;;27.80;47.90;;;28.55;33.92;97996.34;4984371;28;120369;-83
2022/06/19 06:23:33;;;;;;;6.47;2.70;;;27.90;47.80;;;28.61;33.83;97993.72;4982355;28;115257;-83
2022/06/19 06:26:08;;;;;;;4.43;2.10;;;27.90;47.70;;;28.69;33.75;97988.63;4973304;28;113952;-83
2022/06/19 06:28:37;;;;;;;5.80;2.30;;;28.00;47.60;;;28.75;33.64;97987.59;4982396;28;124062;-83
2022/06/19 06:31:04;;;;;;;8.30;3.33;;;28.10;47.50;;;28.82;33.47;97986.56;4978702;28;122213;-83
2022/06/19 06:33:31;;;;;;;3.60;1.95;;;28.10;47.40;;;28.91;33.38;97991.56;4978086;28;114388;-83
2022/06/19 06:35:58;;;;;;;3.97;1.90;;;28.20;47.40;;;28.99;33.36;97987.22;4969924;28;113702;-83
2022/06/19 06:38:25;;;;;;;4.87;2.17;;;28.30;47.40;;;29.08;33.37;97983.75;4974207;28;124140;-83
2022/06/19 06:40:53;;;;;;;7.10;2.17;;;28.40;47.20;;;29.16;33.09;97990.78;4968855;28;123681;-84
2022/06/19 06:43:20;;;;;;;5.40;2.83;;;28.40;47.20;;;29.20;33.12;97997.91;4972601;28;114376;-84
2022/06/19 06:45:48;;;;;;;4.90;2.67;;;28.50;47.10;;;29.24;33.10;97995.75;4981436;28;113720;-83
2022/06/19 06:48:16;;;;;;;5.70;2.70;;;28.60;47.00;;;29.34;33.18;97993.00;4981665;28;124068;-83
2022/06/19 06:50:43;;;;;;;4.37;2.17;;;28.60;47.00;;;29.42;33.04;97989.47;4985915;28;123294;-84
2022/06/19 06:53:11;;;;;;;6.03;2.33;;;28.70;46.90;;;29.53;32.90;97994.78;4983935;28;115099;-84
2022/06/19 06:55:44;;;;;;;4.63;2.37;;;28.80;47.00;;;29.60;32.79;97991.66;4970751;28;116066;-85
2022/06/19 06:58:12;;;;;;;7.90;2.50;;;28.90;46.90;;;29.67;32.83;97994.28;4974106;28;124008;-84
2022/06/19 07:00:39;;;;;;;6.20;2.47;;;29.00;46.80;;;29.73;32.74;97985.97;4993888;28;123746;-83
2022/06/19 07:03:07;;;;;;;8.53;3.03;;;29.00;46.70;;;29.75;32.84;97992.00;4972599;28;114175;-83
2022/06/19 07:05:34;;;;;;;5.47;2.30;;;29.10;46.60;;;29.76;32.77;97985.03;4978903;28;113795;-84
2022/06/19 07:08:01;;;;;;;4.03;2.00;;;29.10;47.20;;;29.80;32.51;97988.56;4984225;28;124715;-84
2022/06/19 07:10:28;;;;;;;4.67;2.50;;;29.10;46.60;;;29.81;32.48;97975.91;4979763;28;123167;-84
2022/06/19 07:12:55;;;;;;;8.47;2.90;;;29.20;46.60;;;29.83;32.68;97979.09;4970785;28;114327;-83
2022/06/19 07:15:21;;;;;;;4.70;2.60;;;29.20;46.60;;;29.83;32.98;97984.78;4976574;28;114099;-83
2022/06/19 07:17:48;;;;;;;7.30;2.57;;;29.20;46.60;;;29.86;33.01;97986.69;4973028;28;123814;-84
2022/06/19 07:20:14;;;;;;;6.23;2.60;;;29.20;46.60;;;29.88;32.71;97981.34;4982438;28;124577;-83
2022/06/19 07:22:41;;;;;;;6.40;2.87;;;29.30;46.70;;;29.90;33.03;97978.81;4976672;28;114260;-83
2022/06/19 07:25:10;;;;;;;3.90;2.40;;;29.30;46.70;;;29.93;32.83;97986.44;4972823;28;113773;-84
2022/06/19 07:27:37;;;;;;;8.80;3.33;;;29.30;46.70;;;30.00;32.91;97987.44;4984621;28;124474;-83
2022/06/19 07:30:04;;;;;;;5.33;2.63;;;29.30;46.80;;;30.08;32.66;97977.34;4968764;28;122941;-83
2022/06/19 07:32:30;;;;;;;7.90;2.73;;;29.40;46.90;;;30.12;32.78;97973.13;4980318;28;113642;-84
2022/06/19 07:34:57;;;;;;;5.27;3.00;;;29.40;46.80;;;30.21;32.65;97972.38;4970436;28;113935;-83
2022/06/19 07:37:23;;;;;;;8.13;3.43;;;29.50;46.90;;;30.30;33.03;97977.34;4969897;28;124477;-83
2022/06/19 07:39:50;;;;;;;6.73;3.13;;;29.60;47.00;;;30.36;32.41;97976.28;4982060;28;123881;-84
2022/06/19 07:42:16;;;;;;;7.13;3.90;;;29.60;47.60;;;30.43;32.95;97975.22;4975725;28;115317;-84
2022/06/19 07:44:43;;;;;;;7.93;3.60;;;29.70;46.90;;;30.53;32.46;97978.91;4979939;28;114169;-83
2022/06/19 07:50:16;;;;;;;7.60;3.67;;;29.90;47.00;;;30.67;32.78;97981.19;4978910;28;124414;-84
2022/06/19 07:52:47;;;;;;;10.43;3.57;;;30.00;47.00;;;30.74;32.62;97963.78;4969353;28;114037;-84
2022/06/19 07:55:18;;;;;;;10.43;4.07;;;30.00;47.20;;;30.84;33.07;97976.03;4985048;28;113040;-83
2022/06/19 07:57:45;;;;;;;7.23;2.50;;;30.20;47.30;;;30.93;32.95;97967.53;4987055;28;124678;-83
2022/06/19 08:00:23;;;;;;;5.20;2.37;;;30.20;47.30;;;31.02;32.96;97963.91;4982376;28;123764;-84
2022/06/19 08:02:53;;;;;;;7.50;3.00;;;30.30;47.30;;;31.13;32.98;97969.94;4988432;28;114255;-84
2022/06/19 08:09:01;;;;;;;6.63;3.17;;;30.50;47.30;;;31.32;32.29;97964.28;4999452;28;124923;-84
2022/06/19 08:11:27;;;;;;;10.37;3.60;;;30.50;47.20;;;31.41;32.87;97970.03;5000192;28;124473;-84
2022/06/19 08:13:54;;;;;;;6.87;3.90;;;30.60;47.20;;;31.50;32.80;97957.81;4972768;28;114446;-84
2022/06/19 08:16:21;;;;;;;4.10;2.90;;;30.80;47.30;;;31.57;32.45;97958.31;4973515;28;113630;-84
2022/06/19 08:18:47;;;;;;;7.80;2.93;;;30.80;47.30;;;31.64;32.42;97952.25;4969408;28;124183;-83
2022/06/19 08:21:14;;;;;;;11.90;3.37;;;30.90;47.20;;;31.72;32.69;97946.22;4956454;28;123606;-83
2022/06/19 08:23:40;;;;;;;7.17;3.10;;;31.00;47.20;;;31.80;32.74;97944.63;4984087;28;113362;-84
2022/06/19 08:26:07;;;;;;;4.73;3.27;;;31.00;47.20;;;31.88;32.33;97949.53;4979548;28;113871;-84
2022/06/19 08:31:00;;;;;;;11.90;3.77;;;31.20;47.40;;;32.04;32.71;97956.22;4976269;28;124932;-82
2022/06/19 08:33:26;;;;;;;5.63;3.30;;;31.30;47.40;;;32.09;32.43;97939.22;4974179;28;115291;-82
2022/06/19 08:36:00;;;;;;;8.20;3.80;;;31.30;47.30;;;32.15;32.23;97945.06;4970237;28;114761;-82
2022/06/19 08:38:33;;;;;;;4.30;3.13;;;31.40;47.30;;;32.21;32.78;97942.38;4983706;28;124084;-82
2022/06/19 08:41:40;;;;;;;7.30;4.00;;;31.50;47.30;;;32.24;32.72;97938.53;4975408;28;123991;-83
2022/06/19 08:44:30;;;;;;;7.90;4.60;;;31.60;47.10;;;32.31;32.17;97943.94;4984112;28;114625;-88
2022/06/19 08:47:40;;;;;;;12.50;5.33;;;31.60;47.10;;;32.35;31.67;97941.72;4975816;28;113752;-88
2022/06/19 08:50:06;;;;;;;11.50;5.37;;;31.70;46.60;;;32.46;31.42;97947.69;4974527;28;124133;-88
2022/06/19 08:53:05;;;;;;;9.27;5.70;;;31.70;46.10;;;32.56;31.22;97942.75;4973750;28;123332;-87
2022/06/19 08:56:01;;;;;;;10.53;6.30;;;31.90;45.40;;;32.65;29.96;97944.78;4971833;28;116174;-88
2022/06/19 08:59:13;;;;;;;10.00;6.40;;;32.00;44.40;;;32.74;29.17;97948.38;4984581;28;114078;-88
2022/06/19 09:02:12;;;;;;;10.13;5.83;;;32.10;43.40;;;32.87;28.98;97959.63;4983281;28;124701;-90
2022/06/19 09:05:44;;;;;;;9.30;6.10;;;32.20;42.50;;;33.02;28.29;97944.63;4974640;28;123213;-88
2022/06/19 09:08:32;;;;;;;14.07;5.93;;;32.30;41.80;;;33.16;26.61;97955.34;5002980;28;114909;-86
2022/06/19 09:11:29;;;;;;;10.03;6.53;;;32.50;39.20;;;33.28;25.30;97954.31;4979740;28;114575;-86
2022/06/19 09:14:33;;;;;;;8.60;5.57;;;32.60;37.30;;;33.40;25.46;97961.09;4981584;28;124151;-86
2022/06/19 09:17:10;;;;;;;11.77;5.87;;;32.80;37.10;;;33.54;24.53;97948.13;4973461;28;124563;-85
2022/06/19 09:20:07;;;;;;;9.77;5.50;;;32.90;36.10;;;33.63;24.34;97954.53;4974977;28;114752;-87
2022/06/19 09:23:06;;;;;;;10.40;5.80;;;33.10;35.50;;;33.73;24.23;97946.66;4979188;28;113878;-86
2022/06/19 09:26:14;;;;;;;11.57;7.07;;;33.20;35.40;;;33.82;24.01;97937.97;4980229;28;124514;-87
2022/06/19 09:28:51;;;;;;;10.73;5.50;;;33.30;35.20;;;33.94;22.64;97955.41;4980135;28;124023;-87
2022/06/19 09:32:07;;;;;;;7.93;4.97;;;33.30;33.60;;;33.98;22.32;97948.19;4982322;28;115197;-87
2022/06/19 09:34:53;;;;;;;9.80;5.17;;;33.50;32.80;;;34.06;22.42;97942.88;4981840;28;115049;-87
2022/06/19 09:37:44;;;;;;;11.00;5.40;;;33.50;32.70;;;34.12;21.90;97945.84;4999543;28;123548;-89
2022/06/19 09:40:29;;;;;;;8.50;5.10;;;33.70;32.10;;;34.18;21.85;97947.53;4974346;28;124473;-90
2022/06/19 09:43:25;;;;;;;6.37;5.20;;;33.70;32.10;;;34.24;22.11;97945.56;4979270;28;114731;-88
2022/06/19 09:46:05;;;;;;;7.77;5.60;;;33.80;32.40;;;34.33;21.95;97943.88;4987042;28;114450;-88
2022/06/19 09:48:52;;;;;;;7.60;4.93;;;33.90;32.10;;;34.40;22.12;97943.47;4984631;28;126382;-88
2022/06/19 09:51:50;;;;;;;7.27;5.30;;;33.90;32.00;;;34.45;21.60;97922.69;4977378;28;123939;-86
2022/06/19 09:54:29;;;;;;;7.83;4.77;;;34.00;32.00;;;34.52;22.13;97933.75;4982956;28;113802;-91
2022/06/19 09:57:09;;;;;;;10.10;5.03;;;34.00;32.20;;;34.58;21.95;97937.56;4981188;28;114318;-92
2022/06/19 10:00:09;;;;;;;10.20;5.13;;;34.10;32.20;;;34.63;21.39;97927.44;4981616;28;123863;-90
2022/06/19 10:02:49;;;;;;;10.30;4.73;;;34.20;31.20;;;34.68;20.63;97933.25;4950659;28;123360;-89
2022/06/19 10:05:38;;;;;;;11.13;4.53;;;34.20;30.10;;;34.71;20.97;97938.03;5000384;28;114842;-87
2022/06/19 10:08:22;;;;;;;13.63;5.50;;;34.20;30.00;;;34.77;20.32;97940.16;4981205;28;113788;-89
2022/06/19 10:11:04;;;;;;;11.20;5.07;;;34.30;29.80;;;34.80;19.72;97950.66;4974617;28;124699;-88
2022/06/19 10:13:50;;;;;;;12.07;5.13;;;34.30;29.00;;;34.81;20.25;97935.00;4985312;28;123336;-90
2022/06/19 10:16:51;;;;;;;14.70;4.90;;;34.40;29.80;;;34.86;20.24;97934.31;4988551;28;114336;-88
2022/06/19 10:19:23;;;;;;;9.43;5.07;;;34.40;29.20;;;34.92;20.23;97933.09;4999423;28;114537;-88
2022/06/19 10:22:13;;;;;;;11.93;5.03;;;34.50;29.60;;;34.95;20.11;97923.50;4999276;28;125281;-90
2022/06/19 10:25:17;;;;;;;6.83;5.10;;;34.50;29.50;;;34.95;20.76;97925.56;4990351;28;123662;-88
2022/06/19 10:28:01;;;;;;;10.27;5.20;;;34.50;29.80;;;35.02;20.22;97921.50;4994553;28;114936;-89
2022/06/19 10:31:02;;;;;;;13.57;5.40;;;34.60;29.60;;;35.03;20.02;97903.75;4985691;28;114721;-91
2022/06/19 10:33:58;;;;;;;13.30;5.53;;;34.60;29.60;;;35.06;19.57;97936.41;4992821;28;124213;-90
2022/06/19 10:37:23;;;;;;;12.03;5.33;;;34.60;29.10;;;35.07;19.37;97900.72;4972810;28;123838;-91
2022/06/19 10:40:28;;;;;;;11.23;5.37;;;34.70;28.80;;;35.10;19.73;97903.34;4966410;28;115104;-89
2022/06/19 10:42:54;;;;;;;8.23;4.70;;;34.70;29.00;;;35.17;19.41;97913.66;4953769;28;113523;-87
2022/06/19 10:45:45;;;;;;;11.73;5.30;;;34.70;29.00;;;35.21;19.63;97896.19;4977988;28;123481;-90
2022/06/19 10:48:25;;;;;;;11.77;5.10;;;34.70;29.10;;;35.27;20.11;97906.44;4981518;28;124156;-87
2022/06/19 10:52:10;;;;;;;10.27;4.97;;;34.80;29.10;;;35.29;19.56;97917.44;4985522;28;114666;-89
2022/06/19 10:54:37;;;;;;;14.83;4.93;;;34.90;28.90;;;35.35;19.83;97918.28;4949033;28;114461;-92